Time;durP1;ratioP1;P1;durP2;ratioP2;P2;SDS_P1;SDS_P2;PMS_P1;PMS_P2;Temp;Humidity;BMP_temperature;BMP_pressure;BME280_temperature;BME280_humidity;BME280_pressure;Samples;Min_cycle;Max_cycle;Signal;HPM_P1;HPM_P2
2022/11/26 00:02:16;;;;;;;;;;;;;;;19.64;47.26;102207.75;7263595;19;153442;-59
2022/11/26 00:04:43;;;;;;;;;;;;;;;19.68;47.14;102205.25;7257241;19;153021;-59
2022/11/26 00:07:11;;;;;;;;;;;;;;;19.70;47.25;102203.88;7270502;19;153931;-59
2022/11/26 00:09:38;;;;;;;;;;;;;;;19.70;47.66;102201.06;7275152;19;153055;-59
2022/11/26 00:12:14;;;;;;;;;;;;;;;19.72;47.75;102200.78;7258839;19;153816;-59
2022/11/26 00:14:40;;;;;;;;;;;;;;;19.74;47.68;102198.56;7252468;19;154303;-59
2022/11/26 00:17:10;;;;;;;;;;;;;;;19.77;47.61;102198.84;7255153;19;152553;-59
2022/11/26 00:19:37;;;;;;;;;;;;;;;19.80;47.17;102195.53;7254623;19;153469;-59
2022/11/26 00:22:04;;;;;;;;;;;;;;;19.83;47.22;102188.50;7260484;19;155079;-59
2022/11/26 00:24:31;;;;;;;;;;;;;;;19.86;47.38;102191.59;7253631;19;154448;-59
2022/11/26 00:26:58;;;;;;;;;;;;;;;19.89;47.43;102196.69;7250259;19;154125;-59
2022/11/26 00:29:25;;;;;;;;;;;;;;;19.93;47.62;102191.38;7255028;19;153462;-59
2022/11/26 00:31:52;;;;;;;;;;;;;;;19.97;47.47;102192.50;7256301;19;154418;-59
2022/11/26 00:34:19;;;;;;;;;;;;;;;20.02;47.80;102209.34;7251438;19;153960;-59
2022/11/26 00:36:47;;;;;;;;;;;;;;;20.04;47.69;102203.44;7256084;19;153914;-58
2022/11/26 00:39:17;;;;;;;;;;;;;;;20.09;47.48;102200.66;7248483;19;153500;-59
2022/11/26 00:41:46;;;;;;;;;;;;;;;20.14;47.81;102195.06;7246201;19;154488;-58
2022/11/26 00:44:16;;;;;;;;;;;;;;;20.18;47.59;102196.22;7255419;19;153700;-59
2022/11/26 00:46:43;;;;;;;;;;;;;;;20.22;47.42;102198.19;7248454;19;154070;-59
2022/11/26 00:49:10;;;;;;;;;;;;;;;20.27;47.70;102202.97;7250833;19;153630;-58
2022/11/26 00:51:37;;;;;;;;;;;;;;;20.31;47.39;102202.19;7250128;19;154030;-60
2022/11/26 00:54:05;;;;;;;;;;;;;;;20.35;47.52;102203.31;7245434;19;152607;-59
2022/11/26 00:56:32;;;;;;;;;;;;;;;20.39;47.76;102204.47;7248986;19;153433;-59
2022/11/26 00:59:03;;;;;;;;;;;;;;;20.45;47.83;102208.09;7250040;19;153391;-59
2022/11/26 01:01:31;;;;;;;;;;;;;;;20.49;47.64;102212.03;7246694;19;155666;-59
2022/11/26 01:03:58;;;;;;;;;;;;;;;20.53;47.74;102206.75;7251031;19;153581;-59
2022/11/26 01:06:30;;;;;;;;;;;;;;;20.57;47.33;102213.47;7255212;19;154230;-59
2022/11/26 01:08:57;;;;;;;;;;;;;;;20.60;47.35;102207.31;7248461;19;152122;-59
2022/11/26 01:11:23;;;;;;;;;;;;;;;20.65;47.54;102216.59;7245520;19;156082;-60
2022/11/26 01:13:51;;;;;;;;;;;;;;;20.70;47.32;102210.13;7249954;19;154950;-59
2022/11/26 01:16:21;;;;;;;;;;;;;;;20.73;47.23;102210.41;7248127;19;153597;-59
2022/11/26 01:18:49;;;;;;;;;;;;;;;20.77;47.07;102207.88;7250763;19;153481;-59
2022/11/26 01:21:16;;;;;;;;;;;;;;;20.80;47.04;102207.34;7243181;19;153906;-59
2022/11/26 01:23:43;;;;;;;;;;;;;;;20.82;46.73;102213.50;7247334;19;154420;-59
2022/11/26 01:26:15;;;;;;;;;;;;;;;20.85;46.48;102213.78;7244522;19;155303;-59
2022/11/26 01:28:42;;;;;;;;;;;;;;;20.90;46.75;102214.91;7253846;19;156204;-59
2022/11/26 01:31:17;;;;;;;;;;;;;;;20.93;46.62;102220.84;7247771;19;152718;-59
2022/11/26 01:33:44;;;;;;;;;;;;;;;20.96;46.27;102216.59;7250474;19;153965;-59
2022/11/26 01:36:18;;;;;;;;;;;;;;;20.99;46.03;102201.97;7250606;19;153950;-59
2022/11/26 01:38:45;;;;;;;;;;;;;;;21.02;46.16;102201.44;7252289;19;155014;-59
2022/11/26 01:41:18;;;;;;;;;;;;;;;21.03;46.13;102203.94;7244072;19;154849;-59
2022/11/26 01:43:47;;;;;;;;;;;;;;;21.05;46.02;102203.69;7249442;19;152673;-59
2022/11/26 01:46:15;;;;;;;;;;;;;;;21.06;46.23;102211.84;7252758;19;153882;-59
2022/11/26 01:48:42;;;;;;;;;;;;;;;21.08;45.95;102217.16;7249776;19;153836;-59
2022/11/26 01:51:10;;;;;;;;;;;;;;;21.09;45.87;102216.88;7255281;19;153415;-59
2022/11/26 01:53:39;;;;;;;;;;;;;;;21.11;46.05;102211.00;7251297;19;153698;-59
2022/11/26 01:56:13;;;;;;;;;;;;;;;21.11;46.22;102202.56;7246667;19;153365;-58
2022/11/26 01:58:42;;;;;;;;;;;;;;;21.13;45.78;102195.56;7253296;19;153820;-59
2022/11/26 02:01:09;;;;;;;;;;;;;;;21.13;46.13;102208.75;7248185;19;153475;-59
2022/11/26 02:03:39;;;;;;;;;;;;;;;21.12;45.88;102205.06;7250728;19;153131;-59
2022/11/26 02:06:11;;;;;;;;;;;;;;;21.14;45.67;102204.84;7252345;19;153963;-59
2022/11/26 02:08:38;;;;;;;;;;;;;;;21.14;45.60;102208.50;7256021;19;153847;-59
2022/11/26 02:11:15;;;;;;;;;;;;;;;21.15;45.79;102203.72;7262558;19;154313;-60
2022/11/26 02:13:43;;;;;;;;;;;;;;;21.13;45.74;102209.59;7257659;19;156930;-59
2022/11/26 02:16:17;;;;;;;;;;;;;;;21.13;45.47;102217.19;7261576;19;154502;-59
2022/11/26 02:18:51;;;;;;;;;;;;;;;21.12;45.66;102218.31;7260414;19;153715;-59
2022/11/26 02:21:25;;;;;;;;;;;;;;;21.12;45.49;102207.88;7254010;19;154672;-59
2022/11/26 02:23:59;;;;;;;;;;;;;;;21.10;45.38;102212.13;7258878;19;153614;-59
2022/11/26 02:26:27;;;;;;;;;;;;;;;21.08;45.51;102214.34;7257563;19;154065;-59
2022/11/26 02:28:55;;;;;;;;;;;;;;;21.06;45.43;102220.28;7254751;19;155252;-59
2022/11/26 02:31:26;;;;;;;;;;;;;;;21.04;45.63;102233.75;7257849;19;153910;-59
2022/11/26 02:33:56;;;;;;;;;;;;;;;21.02;45.70;102224.78;7264224;19;154785;-59
2022/11/26 02:36:31;;;;;;;;;;;;;;;21.01;45.76;102227.84;7254330;19;153003;-59
2022/11/26 02:39:09;;;;;;;;;;;;;;;20.99;45.53;102230.94;7250738;19;154299;-59
2022/11/26 02:41:46;;;;;;;;;;;;;;;20.96;45.54;102228.69;7250518;19;154350;-59
2022/11/26 02:44:15;;;;;;;;;;;;;;;20.94;45.93;102228.13;7254485;19;154794;-60
2022/11/26 02:46:48;;;;;;;;;;;;;;;20.91;45.96;102231.50;7251122;19;152556;-59
2022/11/26 02:49:21;;;;;;;;;;;;;;;20.97;46.24;102233.19;7259143;19;153621;-59
2022/11/26 02:51:59;;;;;;;;;;;;;;;20.94;46.10;102228.13;7255899;19;154845;-59
2022/11/26 02:54:32;;;;;;;;;;;;;;;20.96;46.32;102230.66;7255517;19;154775;-59
2022/11/26 02:57:03;;;;;;;;;;;;;;;20.91;46.49;102234.31;7263524;19;153944;-59
2022/11/26 02:59:31;;;;;;;;;;;;;;;20.89;46.47;102235.72;7255813;19;154442;-59
2022/11/26 03:02:01;;;;;;;;;;;;;;;20.88;46.70;102242.44;7253617;19;154060;-59
2022/11/26 03:04:33;;;;;;;;;;;;;;;20.86;46.74;102240.75;7258289;19;152145;-59
2022/11/26 03:07:04;;;;;;;;;;;;;;;20.84;46.55;102247.78;7254740;19;154192;-58
2022/11/26 03:09:34;;;;;;;;;;;;;;;20.83;46.77;102238.53;7252136;19;154786;-59
2022/11/26 03:12:04;;;;;;;;;;;;;;;20.82;46.93;102235.97;7256214;19;153632;-59
2022/11/26 03:14:36;;;;;;;;;;;;;;;20.80;46.97;102239.06;7256714;19;154305;-59
2022/11/26 03:17:04;;;;;;;;;;;;;;;20.80;46.76;102246.66;7256237;19;154215;-59
2022/11/26 03:19:31;;;;;;;;;;;;;;;20.78;46.92;102240.47;7264667;19;152097;-59
2022/11/26 03:21:58;;;;;;;;;;;;;;;20.76;46.73;102237.94;7254382;19;154113;-59
2022/11/26 03:24:27;;;;;;;;;;;;;;;20.75;47.22;102233.47;7256173;19;153907;-59
2022/11/26 03:26:54;;;;;;;;;;;;;;;20.75;46.72;102232.63;7254183;19;153382;-59
2022/11/26 03:29:22;;;;;;;;;;;;;;;20.76;46.83;102235.13;7256731;19;154240;-59
2022/11/26 03:31:49;;;;;;;;;;;;;;;20.74;47.29;102234.56;7255211;19;154963;-59
2022/11/26 03:34:17;;;;;;;;;;;;;;;20.76;46.91;102237.09;7258206;19;153302;-58
2022/11/26 03:36:44;;;;;;;;;;;;;;;20.78;46.85;102224.47;7255878;19;154017;-59
2022/11/26 03:39:11;;;;;;;;;;;;;;;20.75;47.00;102227.84;7254761;19;151996;-59
2022/11/26 03:41:38;;;;;;;;;;;;;;;20.75;46.84;102227.84;7260790;19;153916;-59
2022/11/26 03:44:05;;;;;;;;;;;;;;;20.73;47.01;102224.44;7254880;19;152029;-59
2022/11/26 03:46:32;;;;;;;;;;;;;;;20.74;47.28;102223.34;7253845;19;155066;-59
2022/11/26 03:48:59;;;;;;;;;;;;;;;20.73;47.33;102213.22;7256382;19;154392;-58
2022/11/26 03:51:26;;;;;;;;;;;;;;;20.73;47.25;102215.19;7256141;19;152801;-58
2022/11/26 03:53:53;;;;;;;;;;;;;;;20.72;47.13;102208.72;7257009;19;153032;-59
2022/11/26 03:56:20;;;;;;;;;;;;;;;20.72;47.02;102222.75;7251532;19;154747;-59
2022/11/26 03:58:47;;;;;;;;;;;;;;;20.71;47.33;102223.91;7257925;19;152645;-59
2022/11/26 04:01:14;;;;;;;;;;;;;;;20.71;47.09;102209.88;7249240;19;153808;-59
2022/11/26 04:03:41;;;;;;;;;;;;;;;20.71;47.37;102215.47;7264119;19;153677;-58
2022/11/26 04:06:08;;;;;;;;;;;;;;;20.68;47.05;102213.22;7253291;19;153789;-59
2022/11/26 04:08:35;;;;;;;;;;;;;;;20.69;47.01;102222.47;7254246;19;154265;-59
2022/11/26 04:11:02;;;;;;;;;;;;;;;20.66;47.11;102231.47;7253059;19;152728;-59
2022/11/26 04:13:30;;;;;;;;;;;;;;;20.66;47.28;102237.09;7257622;19;155118;-58
2022/11/26 04:15:57;;;;;;;;;;;;;;;20.63;47.06;102235.66;7251751;19;153486;-58
2022/11/26 04:18:25;;;;;;;;;;;;;;;20.63;47.37;102237.63;7257506;19;153787;-59
2022/11/26 04:20:52;;;;;;;;;;;;;;;20.58;47.51;102223.59;7252312;19;153660;-59
2022/11/26 04:23:20;;;;;;;;;;;;;;;20.55;47.53;102224.97;7261215;19;153805;-58
2022/11/26 04:25:47;;;;;;;;;;;;;;;20.54;47.79;102216.81;7253854;19;154392;-59
2022/11/26 04:28:15;;;;;;;;;;;;;;;20.51;47.59;102220.19;7254485;19;155262;-59
2022/11/26 04:30:42;;;;;;;;;;;;;;;20.51;47.78;102211.78;7253725;19;152666;-60
2022/11/26 04:33:10;;;;;;;;;;;;;;;20.50;47.95;102210.09;7256049;19;154285;-59
2022/11/26 04:35:37;;;;;;;;;;;;;;;20.48;47.92;102212.34;7256063;19;153273;-60
2022/11/26 04:38:04;;;;;;;;;;;;;;;20.47;47.88;102219.06;7255854;19;154003;-59
2022/11/26 04:40:32;;;;;;;;;;;;;;;20.41;47.61;102216.25;7252771;19;154397;-60
2022/11/26 04:42:59;;;;;;;;;;;;;;;20.42;47.66;102219.91;7253063;19;153414;-60
2022/11/26 04:45:27;;;;;;;;;;;;;;;20.42;47.63;102217.09;7261603;19;152057;-60
2022/11/26 04:47:54;;;;;;;;;;;;;;;20.41;47.93;102215.41;7253252;19;154536;-60
2022/11/26 04:50:21;;;;;;;;;;;;;;;20.38;48.19;102204.72;7255545;19;153590;-60
2022/11/26 04:52:49;;;;;;;;;;;;;;;20.36;48.24;102205.00;7252734;19;156343;-59
2022/11/26 04:55:16;;;;;;;;;;;;;;;20.36;48.16;102206.97;7251738;19;153687;-60
2022/11/26 04:57:47;;;;;;;;;;;;;;;20.34;48.16;102212.03;7254977;19;153173;-59
2022/11/26 05:00:16;;;;;;;;;;;;;;;20.31;47.93;102207.78;7254926;19;154191;-60
2022/11/26 05:02:46;;;;;;;;;;;;;;;20.29;48.27;102210.00;7251650;19;156736;-59
2022/11/26 05:05:14;;;;;;;;;;;;;;;20.26;48.42;102220.97;7253854;19;152054;-59
2022/11/26 05:07:41;;;;;;;;;;;;;;;20.26;48.08;102229.38;7262416;19;153507;-60
2022/11/26 05:10:09;;;;;;;;;;;;;;;20.23;48.48;102224.28;7251731;19;154138;-60
2022/11/26 05:12:36;;;;;;;;;;;;;;;20.23;48.65;102227.94;7255132;19;153758;-60
2022/11/26 05:15:04;;;;;;;;;;;;;;;20.21;48.44;102223.75;7250544;19;153309;-59
2022/11/26 05:17:31;;;;;;;;;;;;;;;20.21;48.56;102223.75;7254204;19;153887;-58
2022/11/26 05:19:59;;;;;;;;;;;;;;;20.20;48.61;102227.66;7253078;19;153562;-59
2022/11/26 05:22:26;;;;;;;;;;;;;;;20.19;48.78;102225.97;7249631;19;154632;-59
2022/11/26 05:24:53;;;;;;;;;;;;;;;20.16;48.64;102233.00;7251252;19;152890;-59
2022/11/26 05:27:20;;;;;;;;;;;;;;;20.15;48.79;102228.47;7253162;19;154848;-59
2022/11/26 05:29:47;;;;;;;;;;;;;;;20.13;48.78;102233.50;7259022;19;155700;-59
2022/11/26 05:32:14;;;;;;;;;;;;;;;20.11;48.81;102232.97;7254220;19;155405;-59
2022/11/26 05:34:41;;;;;;;;;;;;;;;20.11;48.76;102234.91;7252366;19;155026;-60
2022/11/26 05:37:08;;;;;;;;;;;;;;;20.08;49.19;102230.69;7254026;19;152717;-59
2022/11/26 05:39:35;;;;;;;;;;;;;;;20.06;49.28;102232.94;7247350;19;153531;-60
2022/11/26 05:42:02;;;;;;;;;;;;;;;20.04;49.25;102217.47;7255759;19;155253;-59
2022/11/26 05:44:35;;;;;;;;;;;;;;;20.05;49.18;102207.94;7259803;19;153631;-59
2022/11/26 05:47:02;;;;;;;;;;;;;;;20.03;49.38;102210.22;7259470;19;153357;-59
2022/11/26 05:49:29;;;;;;;;;;;;;;;20.02;49.65;102208.50;7257955;19;152599;-59
2022/11/26 05:51:56;;;;;;;;;;;;;;;19.99;49.32;102213.53;7267866;19;153385;-58
2022/11/26 05:54:23;;;;;;;;;;;;;;;19.99;49.35;102221.94;7256758;19;156288;-59
2022/11/26 05:56:50;;;;;;;;;;;;;;;19.97;49.63;102224.22;7258422;19;152757;-59
2022/11/26 05:59:25;;;;;;;;;;;;;;;19.99;49.90;102229.53;7259766;19;153885;-59
2022/11/26 06:01:52;;;;;;;;;;;;;;;19.95;49.78;102229.22;7258370;19;154504;-59
2022/11/26 06:04:19;;;;;;;;;;;;;;;19.96;49.91;102225.31;7261213;19;154932;-58
2022/11/26 06:06:46;;;;;;;;;;;;;;;19.94;49.69;102227.53;7260930;19;153581;-59
2022/11/26 06:09:13;;;;;;;;;;;;;;;19.94;50.00;102226.72;7254454;19;154276;-58
2022/11/26 06:11:41;;;;;;;;;;;;;;;19.94;49.93;102226.72;7256702;19;154454;-59
2022/11/26 06:14:09;;;;;;;;;;;;;;;19.92;49.72;102241.00;7265972;19;154706;-59
2022/11/26 06:16:36;;;;;;;;;;;;;;;19.90;50.14;102243.22;7259655;19;152675;-59
2022/11/26 06:19:04;;;;;;;;;;;;;;;19.88;49.88;102247.44;7260531;19;153482;-59
2022/11/26 06:21:33;;;;;;;;;;;;;;;19.87;50.20;102235.38;7259027;19;153253;-59
2022/11/26 06:24:00;;;;;;;;;;;;;;;19.88;49.98;102236.22;7258475;19;153668;-59
2022/11/26 06:26:27;;;;;;;;;;;;;;;19.87;49.97;102229.75;7257949;19;154362;-59
2022/11/26 06:28:55;;;;;;;;;;;;;;;19.87;49.95;102226.97;7255211;19;155212;-59
2022/11/26 06:31:22;;;;;;;;;;;;;;;19.86;50.02;102227.22;7259443;19;152240;-59
2022/11/26 06:33:53;;;;;;;;;;;;;;;19.84;50.44;102226.66;7266424;19;153172;-59
2022/11/26 06:36:20;;;;;;;;;;;;;;;19.84;50.01;102223.84;7257757;19;152898;-59
2022/11/26 06:38:48;;;;;;;;;;;;;;;19.82;50.28;102223.28;7256992;19;153701;-59
2022/11/26 06:41:16;;;;;;;;;;;;;;;19.81;50.21;102221.56;7254111;19;154168;-59
2022/11/26 06:43:43;;;;;;;;;;;;;;;19.81;50.21;102230.00;7260167;19;152330;-59
2022/11/26 06:46:12;;;;;;;;;;;;;;;19.80;50.12;102229.19;7258619;19;154833;-59
2022/11/26 06:48:40;;;;;;;;;;;;;;;19.77;50.43;102234.47;7254240;19;154317;-59
2022/11/26 06:51:10;;;;;;;;;;;;;;;19.78;50.51;102237.00;7259025;19;154202;-60
2022/11/26 06:53:38;;;;;;;;;;;;;;;19.77;50.15;102238.13;7254992;19;154479;-59
2022/11/26 06:56:06;;;;;;;;;;;;;;;19.76;50.39;102241.22;7262055;19;155271;-59
2022/11/26 06:58:33;;;;;;;;;;;;;;;19.76;50.54;102242.03;7258558;19;152333;-59
2022/11/26 07:01:06;;;;;;;;;;;;;;;19.75;50.56;102237.56;7256502;19;153778;-59
2022/11/26 07:03:37;;;;;;;;;;;;;;;19.73;50.32;102252.94;7256142;19;153082;-59
2022/11/26 07:06:04;;;;;;;;;;;;;;;19.72;50.31;102254.91;7255500;19;153757;-59
2022/11/26 07:08:32;;;;;;;;;;;;;;;19.68;50.46;102259.38;7256371;19;154819;-59
2022/11/26 07:11:03;;;;;;;;;;;;;;;19.70;50.26;102253.50;7254137;19;154114;-59
2022/11/26 07:13:30;;;;;;;;;;;;;;;19.68;50.38;102253.75;7256719;19;153885;-59
2022/11/26 07:16:01;;;;;;;;;;;;;;;19.68;50.41;102258.53;7253357;19;153213;-59
2022/11/26 07:18:30;;;;;;;;;;;;;;;19.67;50.38;102252.06;7264334;19;153223;-59
2022/11/26 07:21:02;;;;;;;;;;;;;;;19.66;50.75;102243.94;7257014;19;153737;-59
2022/11/26 07:23:32;;;;;;;;;;;;;;;19.63;50.92;102250.91;7255948;19;152633;-59
2022/11/26 07:26:01;;;;;;;;;;;;;;;19.63;51.03;102250.91;7251924;19;153017;-59
2022/11/26 07:28:30;;;;;;;;;;;;;;;19.64;50.95;102255.41;7255428;19;154486;-59
2022/11/26 07:30:59;;;;;;;;;;;;;;;19.62;50.59;102248.41;7256441;19;153460;-59
2022/11/26 07:33:27;;;;;;;;;;;;;;;19.62;50.88;102237.19;7256559;19;155075;-59
2022/11/26 07:35:58;;;;;;;;;;;;;;;19.60;51.02;102245.03;7256756;19;153749;-59
2022/11/26 07:38:27;;;;;;;;;;;;;;;19.59;51.12;102229.31;7257365;19;154137;-59
2022/11/26 07:41:04;;;;;;;;;;;;;;;19.56;50.74;102219.50;7259753;19;152829;-59
2022/11/26 07:43:36;;;;;;;;;;;;;;;19.57;50.81;102226.78;7253328;19;153619;-59
2022/11/26 07:46:06;;;;;;;;;;;;;;;19.55;51.29;102240.22;7254980;19;153210;-59
2022/11/26 07:48:37;;;;;;;;;;;;;;;19.56;51.20;102233.50;7256559;19;153987;-58
2022/11/26 07:51:06;;;;;;;;;;;;;;;19.55;51.06;102223.41;7253933;19;153780;-59
2022/11/26 07:53:35;;;;;;;;;;;;;;;19.53;50.96;102226.47;7257976;19;153254;-59
2022/11/26 07:56:05;;;;;;;;;;;;;;;19.53;50.99;102218.06;7253308;19;154985;-59
2022/11/26 07:58:33;;;;;;;;;;;;;;;19.53;51.15;102220.03;7256709;19;154065;-59
2022/11/26 08:01:06;;;;;;;;;;;;;;;19.51;51.11;102213.84;7255751;19;153099;-59
2022/11/26 08:03:39;;;;;;;;;;;;;;;19.50;51.28;102218.59;7260876;19;154570;-59
2022/11/26 08:06:13;;;;;;;;;;;;;;;19.50;51.34;102223.38;7254482;19;153559;-59
2022/11/26 08:08:44;;;;;;;;;;;;;;;19.48;51.60;102226.47;7250677;19;154105;-61
2022/11/26 08:11:14;;;;;;;;;;;;;;;19.47;51.69;102218.31;7252544;19;153524;-59
2022/11/26 08:13:41;;;;;;;;;;;;;;;19.47;51.51;102223.91;7256073;19;154394;-60
2022/11/26 08:16:09;;;;;;;;;;;;;;;19.44;51.83;102228.09;7254344;19;153646;-59
2022/11/26 08:18:36;;;;;;;;;;;;;;;19.45;51.42;102226.13;7255368;19;153690;-60
2022/11/26 08:21:04;;;;;;;;;;;;;;;19.45;51.69;102221.38;7252868;19;153493;-60
2022/11/26 08:23:31;;;;;;;;;;;;;;;19.44;51.32;102224.47;7254301;19;155317;-59
2022/11/26 08:26:03;;;;;;;;;;;;;;;19.42;51.86;102224.69;7259812;19;153979;-60
2022/11/26 08:28:49;;;;;;;;;;;;;;;19.42;51.44;102224.69;7255219;19;153746;-60
2022/11/26 08:31:17;;;;;;;;;;;;;;;19.42;51.52;102221.03;7255783;19;153754;-60
2022/11/26 08:33:44;;;;;;;;;;;;;;;19.41;51.67;102220.19;7254512;19;152632;-60
2022/11/26 08:36:11;;;;;;;;;;;;;;;19.41;51.82;102230.56;7251905;19;153633;-59
2022/11/26 08:38:38;;;;;;;;;;;;;;;19.42;51.56;102215.44;7257585;19;154616;-59
2022/11/26 08:41:07;;;;;;;;;;;;;;;19.44;51.96;102221.66;7251363;19;152787;-58
2022/11/26 08:43:35;;;;;;;;;;;;;;;19.47;51.70;102221.13;7253058;19;154189;-60
2022/11/26 08:46:22;;;;;;;;;;;;;;;19.44;51.80;102208.47;7265191;19;153265;-59
2022/11/26 08:48:49;;;;;;;;;;;;;;;19.42;52.01;102218.25;7252141;19;153727;-59
2022/11/26 08:51:16;;;;;;;;;;;;;;;19.43;51.89;102211.53;7254547;19;152018;-60
2022/11/26 08:53:44;;;;;;;;;;;;;;;19.40;51.99;102210.09;7254016;19;153689;-60
2022/11/26 08:56:12;;;;;;;;;;;;;;;19.37;52.12;102207.00;7250883;19;153973;-59
2022/11/26 08:58:41;;;;;;;;;;;;;;;19.37;51.52;102207.00;7255345;19;153293;-59
2022/11/26 09:01:09;;;;;;;;;;;;;;;19.36;52.13;102194.09;7256944;19;153466;-59
2022/11/26 09:03:36;;;;;;;;;;;;;;;19.36;51.87;102205.28;7250693;19;154035;-59
2022/11/26 09:06:05;;;;;;;;;;;;;;;19.35;51.81;102198.84;7254939;19;153286;-60
2022/11/26 09:08:43;;;;;;;;;;;;;;;19.35;52.06;102209.25;7258714;19;154711;-60
2022/11/26 09:11:11;;;;;;;;;;;;;;;19.33;52.00;102223.50;7251655;19;152887;-60
2022/11/26 09:13:38;;;;;;;;;;;;;;;19.33;52.21;102229.13;7252318;19;153650;-59
2022/11/26 09:16:05;;;;;;;;;;;;;;;19.35;52.14;102228.84;7249744;19;155049;-60
2022/11/26 09:18:32;;;;;;;;;;;;;;;19.31;52.46;102224.88;7254648;19;153080;-59
2022/11/26 09:21:01;;;;;;;;;;;;;;;19.30;52.42;102234.41;7255451;19;154933;-59
2022/11/26 09:23:28;;;;;;;;;;;;;;;19.32;52.45;102230.22;7253667;19;154443;-59
2022/11/26 09:25:55;;;;;;;;;;;;;;;19.31;52.52;102224.88;7251631;19;153611;-59
2022/11/26 09:28:33;;;;;;;;;;;;;;;19.33;52.79;102220.72;7251748;19;153328;-59
2022/11/26 09:31:20;;;;;;;;;;;;;;;19.35;53.04;102226.06;7258863;19;154744;-59
2022/11/26 09:33:47;;;;;;;;;;;;;;;19.40;52.59;102238.13;7254153;19;153349;-59
2022/11/26 09:36:15;;;;;;;;;;;;;;;19.34;52.08;102229.97;7252799;19;154022;-58
2022/11/26 09:38:43;;;;;;;;;;;;;;;19.30;52.47;102224.06;7253368;19;154233;-58
2022/11/26 09:41:13;;;;;;;;;;;;;;;19.29;52.24;102232.72;7249027;19;153970;-58
2022/11/26 09:43:43;;;;;;;;;;;;;;;19.28;52.54;102233.84;7251619;19;154069;-58
2022/11/26 09:46:16;;;;;;;;;;;;;;;19.25;51.98;102235.22;7252540;19;153413;-58
2022/11/26 09:48:43;;;;;;;;;;;;;;;19.28;52.29;102234.69;7252143;19;154190;-59
2022/11/26 09:51:12;;;;;;;;;;;;;;;19.27;51.87;102226.53;7250830;19;154451;-59
2022/11/26 09:53:44;;;;;;;;;;;;;;;19.32;52.00;102224.63;7258626;19;153542;-55
2022/11/26 09:56:13;;;;;;;;;;;;;;;19.33;51.16;102217.06;7244402;19;153977;-57
2022/11/26 09:58:47;;;;;;;;;;;;;;;19.29;51.27;102210.31;7251678;19;152865;-57
2022/11/26 10:01:22;;;;;;;;;;;;;;;19.34;51.14;102208.38;7250362;19;152769;-57
2022/11/26 10:03:56;;;;;;;;;;;;;;;19.44;51.19;102218.88;7246691;19;153480;-57
2022/11/26 10:06:52;;;;;;;;;;;;;;;19.50;50.54;102223.38;7250102;19;154722;-57
2022/11/26 10:09:58;;;;;;;;;;;;;;;19.53;50.46;102218.06;7251441;19;153607;-57
2022/11/26 10:12:43;;;;;;;;;;;;;;;19.58;50.48;102228.47;7258407;19;154356;-57
2022/11/26 10:15:38;;;;;;;;;;;;;;;19.59;50.97;102223.69;7252017;19;154139;-57
2022/11/26 10:18:08;;;;;;;;;;;;;;;19.61;50.56;102224.28;7262215;19;153791;-57
2022/11/26 10:20:38;;;;;;;;;;;;;;;19.66;50.70;102227.13;7253499;19;153718;-58
2022/11/26 10:23:08;;;;;;;;;;;;;;;19.69;50.49;102220.97;7251620;19;154651;-57
2022/11/26 10:25:38;;;;;;;;;;;;;;;19.71;50.80;102211.19;7248836;19;154270;-57
2022/11/26 10:28:13;;;;;;;;;;;;;;;19.75;50.67;102209.50;7252360;19;154572;-57
2022/11/26 10:30:41;;;;;;;;;;;;;;;19.79;50.63;102205.03;7259796;19;153909;-57
2022/11/26 10:33:13;;;;;;;;;;;;;;;19.83;50.57;102194.97;7258705;19;153438;-57
2022/11/26 10:35:41;;;;;;;;;;;;;;;19.88;50.46;102192.19;7256764;19;153043;-57
2022/11/26 10:38:09;;;;;;;;;;;;;;;19.92;50.51;102187.72;7260068;19;153586;-57
2022/11/26 10:40:36;;;;;;;;;;;;;;;19.95;50.29;102178.75;7263322;19;153496;-57
2022/11/26 10:43:07;;;;;;;;;;;;;;;19.99;50.12;102185.47;7259820;19;153447;-57
2022/11/26 10:45:35;;;;;;;;;;;;;;;20.04;49.94;102173.44;7250174;19;154182;-57
2022/11/26 10:48:05;;;;;;;;;;;;;;;20.09;50.06;102165.03;7253715;19;154394;-57
2022/11/26 10:50:34;;;;;;;;;;;;;;;20.12;49.94;102164.50;7259086;19;153488;-57
2022/11/26 10:53:20;;;;;;;;;;;;;;;20.17;49.92;102174.91;7258239;19;153438;-57
2022/11/26 10:55:47;;;;;;;;;;;;;;;20.21;49.90;102160.03;7256001;19;153465;-57
2022/11/26 10:58:16;;;;;;;;;;;;;;;20.25;49.64;102160.31;7253290;19;154346;-57
2022/11/26 11:00:43;;;;;;;;;;;;;;;20.29;49.92;102156.69;7261895;19;154068;-57
2022/11/26 11:03:14;;;;;;;;;;;;;;;20.33;49.39;102162.63;7254392;19;155337;-57
2022/11/26 11:05:42;;;;;;;;;;;;;;;20.38;49.35;102162.63;7257853;19;154206;-57
2022/11/26 11:08:12;;;;;;;;;;;;;;;20.40;49.33;102161.22;7249833;19;153408;-57
2022/11/26 11:10:51;;;;;;;;;;;;;;;20.45;49.48;102166.00;7251924;19;154068;-57
2022/11/26 11:13:18;;;;;;;;;;;;;;;20.49;49.00;102169.94;7253446;19;154041;-57
2022/11/26 11:15:45;;;;;;;;;;;;;;;20.52;48.72;102168.56;7256901;19;153310;-57
2022/11/26 11:18:15;;;;;;;;;;;;;;;20.55;49.08;102166.00;7258630;19;153302;-57
2022/11/26 11:20:51;;;;;;;;;;;;;;;20.58;48.79;102168.25;7257387;19;155212;-57
2022/11/26 11:23:21;;;;;;;;;;;;;;;20.61;48.92;102162.09;7264184;19;153782;-57
2022/11/26 11:26:14;;;;;;;;;;;;;;;20.65;48.59;102171.66;7252335;19;156845;-57
2022/11/26 11:28:45;;;;;;;;;;;;;;;20.67;48.68;102166.59;7255822;19;152989;-57
2022/11/26 11:31:14;;;;;;;;;;;;;;;20.69;48.61;102158.72;7257477;19;153594;-57
2022/11/26 11:33:41;;;;;;;;;;;;;;;20.71;48.28;102155.66;7255034;19;154610;-57
2022/11/26 11:36:12;;;;;;;;;;;;;;;20.73;48.24;102150.59;7256823;19;152428;-57
2022/11/26 11:38:43;;;;;;;;;;;;;;;20.72;48.36;102149.75;7248837;19;154099;-57
2022/11/26 11:41:14;;;;;;;;;;;;;;;20.76;48.35;102159.28;7252388;19;154791;-57
2022/11/26 11:43:41;;;;;;;;;;;;;;;20.77;48.13;102146.94;7255968;19;154682;-57
2022/11/26 11:46:12;;;;;;;;;;;;;;;20.78;47.94;102144.97;7261113;19;153009;-57
2022/11/26 11:48:46;;;;;;;;;;;;;;;20.78;47.74;102140.19;7257251;19;153863;-56
2022/11/26 11:51:22;;;;;;;;;;;;;;;20.79;47.69;102136.28;7256301;19;155230;-57
2022/11/26 11:54:02;;;;;;;;;;;;;;;20.81;47.85;102127.53;7258002;19;153906;-57
2022/11/26 11:56:34;;;;;;;;;;;;;;;20.83;47.90;102131.78;7250955;19;154219;-57
2022/11/26 11:59:01;;;;;;;;;;;;;;;20.85;47.99;102123.03;7255577;19;153588;-57
2022/11/26 12:01:38;;;;;;;;;;;;;;;20.87;47.96;102118.00;7253031;19;153317;-57
2022/11/26 12:04:12;;;;;;;;;;;;;;;20.89;47.57;102117.72;7254452;19;154375;-57
2022/11/26 12:06:46;;;;;;;;;;;;;;;20.92;47.77;102117.16;7257141;19;153908;-56
2022/11/26 12:09:14;;;;;;;;;;;;;;;20.94;47.81;102110.09;7258212;19;155231;-59
2022/11/26 12:11:41;;;;;;;;;;;;;;;20.99;47.58;102103.63;7254984;19;152736;-57
2022/11/26 12:14:12;;;;;;;;;;;;;;;21.05;47.86;102103.38;7255365;19;154070;-57
2022/11/26 12:16:41;;;;;;;;;;;;;;;21.08;47.75;102105.59;7254531;19;153625;-57
2022/11/26 12:19:17;;;;;;;;;;;;;;;21.11;47.62;102102.25;7255608;19;153739;-57
2022/11/26 12:21:47;;;;;;;;;;;;;;;21.15;47.67;102102.53;7251003;19;153862;-57
2022/11/26 12:24:23;;;;;;;;;;;;;;;21.18;47.74;102101.97;7250596;19;153620;-56
2022/11/26 12:26:54;;;;;;;;;;;;;;;21.23;47.57;102102.78;7255449;19;154211;-57
2022/11/26 12:29:31;;;;;;;;;;;;;;;21.26;47.26;102101.38;7254708;19;154583;-57
2022/11/26 12:32:01;;;;;;;;;;;;;;;21.30;47.76;102111.75;7262915;19;152777;-57
2022/11/26 12:34:38;;;;;;;;;;;;;;;21.33;47.31;102104.72;7251532;19;153748;-61
2022/11/26 12:37:17;;;;;;;;;;;;;;;21.38;46.91;102101.06;7256042;19;153936;-57
2022/11/26 12:39:45;;;;;;;;;;;;;;;21.39;47.38;102103.59;7251860;19;152648;-57
2022/11/26 12:42:29;;;;;;;;;;;;;;;21.44;47.14;102099.94;7252734;19;154783;-57